Time;durP1;ratioP1;P1;durP2;ratioP2;P2;SDS_P1;SDS_P2;PMS_P1;PMS_P2;Temp;Humidity;BMP_temperature;BMP_pressure;BME280_temperature;BME280_humidity;BME280_pressure;Samples;Min_cycle;Max_cycle;Signal;HPM_P1;HPM_P2
2024/03/22 00:01:11;;;;;;;0.95;0.95;;;;;;;;;;5006636;28;20017;-72
2024/03/22 00:03:36;;;;;;;0.30;0.30;;;;;;;;;;5003540;28;20061;-73
2024/03/22 00:06:02;;;;;;;0.50;0.50;;;;;;;;;;5010766;28;20517;-74
2024/03/22 00:08:28;;;;;;;0.68;0.68;;;;;;;;;;5007402;28;20038;-74
2024/03/22 00:10:53;;;;;;;0.40;0.40;;;;;;;;;;5007884;28;20132;-71
2024/03/22 00:13:18;;;;;;;2.35;2.25;;;;;;;;;;5008418;28;20040;-74
2024/03/22 00:15:45;;;;;;;1.05;1.05;;;;;;;;;;5002946;28;20029;-73
2024/03/22 00:18:10;;;;;;;0.40;0.40;;;;;;;;;;5008480;28;20042;-72
2024/03/22 00:20:36;;;;;;;3.45;3.13;;;;;;;;;;5005839;28;20803;-72
2024/03/22 00:23:02;;;;;;;0.30;0.30;;;;;;;;;;5007907;28;20048;-72
2024/03/22 00:25:27;;;;;;;1.38;1.38;;;;;;;;;;5006233;28;20025;-72
2024/03/22 00:27:52;;;;;;;0.68;0.50;;;;;;;;;;5007727;28;20022;-73
2024/03/22 00:30:18;;;;;;;2.17;2.08;;;;;;;;;;5005838;28;20135;-73
2024/03/22 00:32:44;;;;;;;0.40;0.40;;;;;;;;;;5012409;28;20045;-72
2024/03/22 00:35:10;;;;;;;0.40;0.30;;;;;;;;;;5007600;28;20034;-72
2024/03/22 00:37:35;;;;;;;0.32;0.32;;;;;;;;;;5009125;28;20521;-73
2024/03/22 00:40:04;;;;;;;0.30;0.30;;;;;;;;;;5009307;28;20483;-73
2024/03/22 00:42:30;;;;;;;7.43;6.75;;;;;;;;;;5010891;28;20132;-72
2024/03/22 00:44:56;;;;;;;1.05;1.05;;;;;;;;;;5006559;28;20068;-72
2024/03/22 00:47:22;;;;;;;7.50;6.13;;;;;;;;;;5008458;28;20044;-72
2024/03/22 00:49:47;;;;;;;0.40;0.40;;;;;;;;;;5003626;28;20045;-74
2024/03/22 00:52:13;;;;;;;0.30;0.30;;;;;;;;;;5007051;28;20901;-74
2024/03/22 00:54:40;;;;;;;0.68;0.68;;;;;;;;;;5030292;28;20083;-74
2024/03/22 00:57:05;;;;;;;7.35;5.18;;;;;;;;;;4999084;28;20458;-73
2024/03/22 00:59:31;;;;;;;0.80;0.80;;;;;;;;;;5004050;28;20046;-72
2024/03/22 01:01:56;;;;;;;3.95;3.60;;;;;;;;;;5003977;28;20038;-75
2024/03/22 01:04:22;;;;;;;0.30;0.30;;;;;;;;;;5007060;28;20021;-73
2024/03/22 01:06:47;;;;;;;0.40;0.40;;;;;;;;;;5005702;28;20499;-72
2024/03/22 01:09:14;;;;;;;0.43;0.43;;;;;;;;;;5006436;28;20144;-72
2024/03/22 01:11:40;;;;;;;0.20;0.20;;;;;;;;;;5007701;28;20140;-73
2024/03/22 01:14:05;;;;;;;0.45;0.45;;;;;;;;;;5008568;28;20489;-73
2024/03/22 01:16:30;;;;;;;0.70;0.70;;;;;;;;;;5015041;28;20038;-72
2024/03/22 01:18:56;;;;;;;0.30;0.30;;;;;;;;;;5010573;28;20748;-72
2024/03/22 01:21:24;;;;;;;0.77;0.77;;;;;;;;;;5007577;28;20041;-72
2024/03/22 01:23:50;;;;;;;1.92;1.83;;;;;;;;;;5006541;28;20164;-72
2024/03/22 01:26:16;;;;;;;1.05;0.90;;;;;;;;;;5005949;28;20780;-73
2024/03/22 01:28:41;;;;;;;0.20;0.20;;;;;;;;;;5007647;28;20653;-71
2024/03/22 01:31:07;;;;;;;2.00;1.88;;;;;;;;;;5010220;28;20087;-73
2024/03/22 01:33:32;;;;;;;0.50;0.50;;;;;;;;;;5011835;28;20048;-73
2024/03/22 01:35:58;;;;;;;0.68;0.68;;;;;;;;;;5008563;28;20544;-73
2024/03/22 01:38:24;;;;;;;1.52;1.42;;;;;;;;;;5006548;28;20040;-72
2024/03/22 01:40:49;;;;;;;1.35;1.05;;;;;;;;;;5011882;28;20058;-71
2024/03/22 01:43:14;;;;;;;0.20;0.20;;;;;;;;;;5006282;28;20501;-71
2024/03/22 01:45:40;;;;;;;1.48;1.45;;;;;;;;;;5002075;28;20052;-72
2024/03/22 01:48:07;;;;;;;0.98;0.98;;;;;;;;;;5006758;28;20073;-72
2024/03/22 01:50:33;;;;;;;0.55;0.55;;;;;;;;;;5004327;28;20246;-72
2024/03/22 01:52:59;;;;;;;0.35;0.35;;;;;;;;;;5011974;28;20049;-72
2024/03/22 01:55:25;;;;;;;2.85;0.73;;;;;;;;;;5000833;28;20057;-73
2024/03/22 01:57:51;;;;;;;1.83;1.73;;;;;;;;;;5011612;28;20057;-72
2024/03/22 02:00:17;;;;;;;0.30;0.30;;;;;;;;;;5009508;28;21407;-73
2024/03/22 02:02:42;;;;;;;0.30;0.30;;;;;;;;;;5003469;28;20545;-72
2024/03/22 02:05:19;;;;;;;0.82;0.82;;;;;;;;;;5002581;28;20045;-72
2024/03/22 02:07:45;;;;;;;0.65;0.65;;;;;;;;;;5022638;28;20025;-72
2024/03/22 02:10:10;;;;;;;0.65;0.65;;;;;;;;;;5021032;28;20033;-72
2024/03/22 02:12:36;;;;;;;0.30;0.30;;;;;;;;;;5016202;28;20042;-72
2024/03/22 02:15:02;;;;;;;3.47;3.25;;;;;;;;;;5016759;28;20049;-72
2024/03/22 02:17:28;;;;;;;21.70;13.65;;;;;;;;;;5014974;28;20516;-72
2024/03/22 02:19:53;;;;;;;0.73;0.55;;;;;;;;;;5016610;28;20046;-72
2024/03/22 02:22:18;;;;;;;0.68;0.68;;;;;;;;;;5015561;28;20038;-72
2024/03/22 02:24:44;;;;;;;0.30;0.30;;;;;;;;;;5015664;28;20050;-72
2024/03/22 02:27:09;;;;;;;2.35;2.25;;;;;;;;;;5008083;28;20053;-72
2024/03/22 02:29:34;;;;;;;0.50;0.50;;;;;;;;;;5006804;28;20045;-74
2024/03/22 02:32:00;;;;;;;0.30;0.30;;;;;;;;;;5011072;28;20042;-75
2024/03/22 02:34:25;;;;;;;1.67;1.60;;;;;;;;;;5002048;28;20473;-74
2024/03/22 02:36:50;;;;;;;12.50;7.38;;;;;;;;;;5002063;28;20061;-74
2024/03/22 02:39:16;;;;;;;2.95;2.85;;;;;;;;;;5004132;28;20042;-73
2024/03/22 02:41:41;;;;;;;0.30;0.30;;;;;;;;;;5006579;28;20049;-73
2024/03/22 02:44:06;;;;;;;0.63;0.50;;;;;;;;;;5007258;28;20588;-74
2024/03/22 02:46:32;;;;;;;1.00;1.00;;;;;;;;;;5007327;28;20044;-73
2024/03/22 02:48:57;;;;;;;2.50;2.40;;;;;;;;;;5010429;28;20160;-73
2024/03/22 02:51:23;;;;;;;0.57;0.57;;;;;;;;;;5000752;28;20038;-72
2024/03/22 02:53:48;;;;;;;1.45;1.35;;;;;;;;;;5009310;28;20038;-74
2024/03/22 02:56:13;;;;;;;0.80;0.80;;;;;;;;;;5006532;28;20042;-73
2024/03/22 02:58:39;;;;;;;0.40;0.40;;;;;;;;;;5003673;28;20533;-72
2024/03/22 03:01:05;;;;;;;0.50;0.50;;;;;;;;;;5003189;28;20122;-73
2024/03/22 03:03:31;;;;;;;1.30;1.30;;;;;;;;;;5003443;28;20059;-72
2024/03/22 03:05:56;;;;;;;0.30;0.30;;;;;;;;;;5003081;28;20034;-72
2024/03/22 03:08:21;;;;;;;2.42;2.33;;;;;;;;;;5004237;28;20096;-74
2024/03/22 03:10:47;;;;;;;0.95;0.60;;;;;;;;;;5003174;28;20053;-74
2024/03/22 03:13:12;;;;;;;5.65;2.25;;;;;;;;;;5009590;28;20760;-73
2024/03/22 03:15:38;;;;;;;0.40;0.40;;;;;;;;;;5024259;28;20045;-74
2024/03/22 03:18:03;;;;;;;2.50;2.40;;;;;;;;;;4993989;28;20043;-73
2024/03/22 03:20:31;;;;;;;1.35;1.27;;;;;;;;;;4987936;28;20043;-75
2024/03/22 03:22:59;;;;;;;3.13;3.03;;;;;;;;;;4996188;28;20100;-72
2024/03/22 03:25:24;;;;;;;1.85;1.75;;;;;;;;;;5004364;28;20064;-73
2024/03/22 03:27:51;;;;;;;0.63;0.63;;;;;;;;;;5001550;28;20062;-72
2024/03/22 03:30:17;;;;;;;0.40;0.40;;;;;;;;;;5008706;28;20049;-72
2024/03/22 03:32:42;;;;;;;2.60;2.50;;;;;;;;;;5007206;28;20040;-72
2024/03/22 03:35:08;;;;;;;0.30;0.30;;;;;;;;;;4998721;28;20055;-72
2024/03/22 03:37:33;;;;;;;3.58;1.75;;;;;;;;;;4987628;28;20077;-72
2024/03/22 03:39:58;;;;;;;0.30;0.30;;;;;;;;;;5000152;28;20034;-73
2024/03/22 03:42:24;;;;;;;2.60;2.50;;;;;;;;;;5000198;28;20374;-73
2024/03/22 03:44:49;;;;;;;0.85;0.85;;;;;;;;;;4999918;28;20502;-72
2024/03/22 03:47:15;;;;;;;1.85;1.73;;;;;;;;;;5007762;28;20038;-74
2024/03/22 03:49:40;;;;;;;6.82;6.47;;;;;;;;;;5007212;28;20032;-74
2024/03/22 03:52:06;;;;;;;2.25;2.15;;;;;;;;;;5008041;28;20393;-74
2024/03/22 03:54:31;;;;;;;0.40;0.40;;;;;;;;;;5010083;28;20128;-73
2024/03/22 03:56:56;;;;;;;0.75;0.75;;;;;;;;;;5009082;28;20108;-73
2024/03/22 03:59:22;;;;;;;0.20;0.20;;;;;;;;;;5005517;28;20129;-74
2024/03/22 04:01:47;;;;;;;1.13;1.05;;;;;;;;;;5008944;28;20050;-73
2024/03/22 04:04:13;;;;;;;1.65;1.58;;;;;;;;;;5011011;28;20466;-73
2024/03/22 04:06:38;;;;;;;1.85;1.75;;;;;;;;;;5008202;28;20108;-72
2024/03/22 04:09:04;;;;;;;0.22;0.22;;;;;;;;;;5007606;28;20137;-73
2024/03/22 04:11:30;;;;;;;6.55;6.13;;;;;;;;;;5008728;28;20802;-72
2024/03/22 04:13:55;;;;;;;2.70;2.60;;;;;;;;;;5007184;28;20043;-73
2024/03/22 04:16:20;;;;;;;0.30;0.30;;;;;;;;;;5008099;28;20091;-72
2024/03/22 04:18:46;;;;;;;0.60;0.60;;;;;;;;;;5014828;28;20041;-72
2024/03/22 04:21:11;;;;;;;9.32;6.32;;;;;;;;;;5013174;28;20379;-72
2024/03/22 04:23:36;;;;;;;0.93;0.93;;;;;;;;;;5011077;28;20038;-72
2024/03/22 04:26:02;;;;;;;2.60;2.40;;;;;;;;;;5013694;28;20521;-74
2024/03/22 04:28:28;;;;;;;28.30;25.95;;;;;;;;;;5012877;28;20018;-73
2024/03/22 04:30:57;;;;;;;5.97;2.70;;;;;;;;;;5008275;28;20029;-73
2024/03/22 04:33:22;;;;;;;1.63;1.52;;;;;;;;;;5006151;28;20560;-73
2024/03/22 04:35:47;;;;;;;0.73;0.73;;;;;;;;;;5010944;28;20049;-72
2024/03/22 04:38:13;;;;;;;2.08;1.98;;;;;;;;;;5015195;28;20049;-71
2024/03/22 04:40:39;;;;;;;0.30;0.30;;;;;;;;;;5005954;28;20033;-72
2024/03/22 04:43:04;;;;;;;0.40;0.40;;;;;;;;;;5017790;28;20022;-72
2024/03/22 04:45:30;;;;;;;0.50;0.50;;;;;;;;;;5009960;28;20061;-74
2024/03/22 04:47:55;;;;;;;4.55;4.32;;;;;;;;;;5005498;28;20038;-73
2024/03/22 04:50:20;;;;;;;1.52;1.33;;;;;;;;;;5006510;28;20054;-73
2024/03/22 04:52:46;;;;;;;0.30;0.30;;;;;;;;;;5007386;28;20160;-73
2024/03/22 04:55:11;;;;;;;0.30;0.30;;;;;;;;;;5009054;28;20370;-74
2024/03/22 04:57:36;;;;;;;0.30;0.30;;;;;;;;;;5003615;28;20160;-73
2024/03/22 05:00:02;;;;;;;0.40;0.40;;;;;;;;;;4999719;28;20061;-74
2024/03/22 05:02:27;;;;;;;1.67;1.58;;;;;;;;;;5003051;28;20113;-73
2024/03/22 05:04:53;;;;;;;3.05;1.95;;;;;;;;;;5000726;28;20042;-74
2024/03/22 05:07:18;;;;;;;1.13;1.13;;;;;;;;;;5009734;28;20026;-73
2024/03/22 05:09:43;;;;;;;0.35;0.35;;;;;;;;;;5006351;28;20477;-78
2024/03/22 05:12:09;;;;;;;2.67;2.47;;;;;;;;;;5007155;28;20099;-81
2024/03/22 05:14:34;;;;;;;0.32;0.32;;;;;;;;;;5006491;28;20184;-85
2024/03/22 05:16:59;;;;;;;6.25;1.67;;;;;;;;;;5005382;28;20042;-82
2024/03/22 05:19:25;;;;;;;14.45;11.57;;;;;;;;;;5007067;28;20033;-80
2024/03/22 05:21:50;;;;;;;4.53;4.25;;;;;;;;;;5010083;28;20037;-82
2024/03/22 05:24:15;;;;;;;2.95;2.40;;;;;;;;;;5006339;28;20065;-82
2024/03/22 05:26:41;;;;;;;1.63;1.52;;;;;;;;;;5007094;28;20029;-85
2024/03/22 05:29:06;;;;;;;1.08;1.08;;;;;;;;;;5006367;28;20037;-81
2024/03/22 05:31:45;;;;;;;28.50;25.48;;;;;;;;;;5007399;28;20410;-82
2024/03/22 05:34:10;;;;;;;0.85;0.85;;;;;;;;;;5003309;28;20033;-84
2024/03/22 05:36:35;;;;;;;2.78;2.58;;;;;;;;;;5007493;28;20030;-85
2024/03/22 05:39:01;;;;;;;1.75;1.65;;;;;;;;;;5007512;28;20052;-85
2024/03/22 05:41:26;;;;;;;1.05;1.00;;;;;;;;;;5008002;28;20462;-84
2024/03/22 05:43:52;;;;;;;1.65;1.60;;;;;;;;;;5007187;28;20041;-82
2024/03/22 05:46:18;;;;;;;13.55;12.70;;;;;;;;;;5010246;28;20029;-83
2024/03/22 05:48:43;;;;;;;2.05;1.95;;;;;;;;;;5002302;28;20045;-87
2024/03/22 05:51:09;;;;;;;16.55;7.07;;;;;;;;;;5003992;28;20410;-85
2024/03/22 05:53:34;;;;;;;0.77;0.77;;;;;;;;;;5006385;28;20054;-82
2024/03/22 05:56:00;;;;;;;1.30;1.05;;;;;;;;;;5006449;28;20041;-81
2024/03/22 05:58:25;;;;;;;0.68;0.68;;;;;;;;;;5009175;28;20446;-80
2024/03/22 06:00:53;;;;;;;0.63;0.63;;;;;;;;;;5007272;28;20034;-85
2024/03/22 06:03:18;;;;;;;21.25;19.85;;;;;;;;;;5010836;28;20037;-78
2024/03/22 06:05:44;;;;;;;1.55;1.20;;;;;;;;;;5006293;28;20081;-83
2024/03/22 06:08:09;;;;;;;2.78;2.65;;;;;;;;;;5007468;28;20045;-84
2024/03/22 06:10:35;;;;;;;2.83;2.72;;;;;;;;;;5003905;28;20358;-82
2024/03/22 06:13:00;;;;;;;0.68;0.68;;;;;;;;;;5001691;28;20541;-80
2024/03/22 06:15:25;;;;;;;0.35;0.35;;;;;;;;;;4995258;28;20048;-80
2024/03/22 06:17:51;;;;;;;1.85;1.27;;;;;;;;;;4993039;28;20798;-80
2024/03/22 06:20:16;;;;;;;1.17;1.15;;;;;;;;;;4990124;28;20049;-80
2024/03/22 06:22:41;;;;;;;0.30;0.30;;;;;;;;;;4992985;28;20037;-82
2024/03/22 06:25:07;;;;;;;2.92;2.72;;;;;;;;;;4991673;28;21253;-81
2024/03/22 06:27:32;;;;;;;0.55;0.55;;;;;;;;;;5005870;28;20176;-79
2024/03/22 06:29:58;;;;;;;6.00;5.38;;;;;;;;;;4992833;28;20422;-82
2024/03/22 06:32:23;;;;;;;0.82;0.82;;;;;;;;;;4993422;28;20046;-84
2024/03/22 06:34:48;;;;;;;0.30;0.30;;;;;;;;;;4992188;28;20514;-79
2024/03/22 06:37:14;;;;;;;0.57;0.57;;;;;;;;;;4993677;28;20079;-73
2024/03/22 06:39:39;;;;;;;8.32;7.95;;;;;;;;;;4989160;28;20120;-75
2024/03/22 06:42:05;;;;;;;0.95;0.95;;;;;;;;;;4991738;28;20144;-75
2024/03/22 06:44:30;;;;;;;2.63;2.53;;;;;;;;;;4987592;28;20451;-74
2024/03/22 06:46:56;;;;;;;2.75;2.65;;;;;;;;;;4993354;28;20061;-74
2024/03/22 06:49:21;;;;;;;1.35;1.25;;;;;;;;;;4991524;28;20128;-74
2024/03/22 06:51:47;;;;;;;28.35;0.95;;;;;;;;;;4990310;28;20422;-74
2024/03/22 06:54:12;;;;;;;0.70;0.70;;;;;;;;;;4993093;28;20062;-76
2024/03/22 06:56:37;;;;;;;1.90;1.80;;;;;;;;;;4991625;28;20188;-76
2024/03/22 06:59:03;;;;;;;1.35;1.25;;;;;;;;;;4993472;28;20049;-77
2024/03/22 07:01:29;;;;;;;6.82;6.50;;;;;;;;;;4993979;28;20056;-75
2024/03/22 07:03:54;;;;;;;0.50;0.50;;;;;;;;;;4998045;28;20030;-75
2024/03/22 07:06:20;;;;;;;1.33;1.23;;;;;;;;;;4996377;28;20034;-76
2024/03/22 07:08:45;;;;;;;0.50;0.50;;;;;;;;;;4996976;28;20144;-76
2024/03/22 07:11:11;;;;;;;0.90;0.90;;;;;;;;;;4994371;28;20513;-75
2024/03/22 07:13:36;;;;;;;0.85;0.85;;;;;;;;;;4996749;28;20494;-76
2024/03/22 07:16:03;;;;;;;1.25;1.17;;;;;;;;;;4997000;28;20032;-77
2024/03/22 07:18:28;;;;;;;0.73;0.65;;;;;;;;;;4994906;28;20049;-78
2024/03/22 07:20:54;;;;;;;0.30;0.30;;;;;;;;;;4993782;28;20046;-75
2024/03/22 07:23:19;;;;;;;0.80;0.80;;;;;;;;;;4995750;28;20137;-76
2024/03/22 07:25:48;;;;;;;0.50;0.50;;;;;;;;;;4996145;28;21368;-75
2024/03/22 07:28:13;;;;;;;0.35;0.35;;;;;;;;;;4996478;28;21454;-75
2024/03/22 07:30:39;;;;;;;0.43;0.43;;;;;;;;;;4993505;28;20046;-75
2024/03/22 07:33:04;;;;;;;0.75;0.75;;;;;;;;;;4995544;28;20097;-77
2024/03/22 07:35:30;;;;;;;0.30;0.30;;;;;;;;;;4996266;28;20533;-75
2024/03/22 07:37:56;;;;;;;0.40;0.40;;;;;;;;;;4996255;28;20092;-75
2024/03/22 07:40:21;;;;;;;9.15;6.00;;;;;;;;;;4994259;28;20737;-74
2024/03/22 07:42:47;;;;;;;0.47;0.47;;;;;;;;;;4994461;28;20042;-75
2024/03/22 07:45:12;;;;;;;0.52;0.40;;;;;;;;;;4995800;28;20030;-74
2024/03/22 07:47:38;;;;;;;0.38;0.38;;;;;;;;;;4993434;28;21276;-77
2024/03/22 07:50:04;;;;;;;3.35;2.80;;;;;;;;;;4992073;28;20080;-76
2024/03/22 07:52:29;;;;;;;0.47;0.47;;;;;;;;;;4995678;28;20119;-76
2024/03/22 07:54:55;;;;;;;0.25;0.25;;;;;;;;;;4995351;28;20026;-75
2024/03/22 07:57:20;;;;;;;1.00;1.00;;;;;;;;;;4995379;28;20541;-74
2024/03/22 07:59:46;;;;;;;0.57;0.40;;;;;;;;;;4995185;28;20061;-76
2024/03/22 08:02:12;;;;;;;0.30;0.30;;;;;;;;;;4993887;28;20127;-75
2024/03/22 08:04:37;;;;;;;0.30;0.30;;;;;;;;;;4995566;28;20021;-76
2024/03/22 08:07:03;;;;;;;0.50;0.50;;;;;;;;;;4993615;28;20044;-75
2024/03/22 08:09:29;;;;;;;0.52;0.52;;;;;;;;;;4993142;28;20734;-75
2024/03/22 08:11:54;;;;;;;0.30;0.30;;;;;;;;;;4990491;28;20506;-75
2024/03/22 08:14:19;;;;;;;3.53;3.33;;;;;;;;;;5011203;28;20145;-75
2024/03/22 08:16:45;;;;;;;1.30;1.20;;;;;;;;;;4995060;28;20076;-75
2024/03/22 08:19:10;;;;;;;0.85;0.85;;;;;;;;;;4995133;28;20580;-75
2024/03/22 08:21:36;;;;;;;0.30;0.30;;;;;;;;;;4994258;28;20395;-74
2024/03/22 08:24:02;;;;;;;0.40;0.40;;;;;;;;;;4996530;28;20038;-75
2024/03/22 08:26:27;;;;;;;0.75;0.75;;;;;;;;;;4992392;28;20098;-74
2024/03/22 08:28:52;;;;;;;0.73;0.73;;;;;;;;;;4994153;28;21548;-78
2024/03/22 08:31:21;;;;;;;3.17;2.88;;;;;;;;;;4994894;28;20060;-75
2024/03/22 08:33:46;;;;;;;0.30;0.30;;;;;;;;;;4995234;28;20058;-76
2024/03/22 08:36:12;;;;;;;0.50;0.50;;;;;;;;;;4994151;28;20050;-76
2024/03/22 08:38:37;;;;;;;0.40;0.40;;;;;;;;;;4995521;28;20915;-78
2024/03/22 08:41:03;;;;;;;1.65;1.55;;;;;;;;;;4994311;28;20201;-76
2024/03/22 08:43:29;;;;;;;1.88;1.77;;;;;;;;;;4994759;28;20053;-76
2024/03/22 08:45:55;;;;;;;4.82;2.63;;;;;;;;;;4992721;28;20028;-75
2024/03/22 08:48:21;;;;;;;0.43;0.43;;;;;;;;;;4993061;28;20052;-76
2024/03/22 08:50:46;;;;;;;1.30;1.20;;;;;;;;;;4990139;28;20093;-76
2024/03/22 08:53:11;;;;;;;0.30;0.30;;;;;;;;;;4992969;28;20045;-74
2024/03/22 08:55:37;;;;;;;0.20;0.20;;;;;;;;;;4993730;28;20057;-72
2024/03/22 08:58:03;;;;;;;4.93;2.88;;;;;;;;;;4991399;28;20064;-74
2024/03/22 09:00:29;;;;;;;0.85;0.85;;;;;;;;;;5007947;28;20169;-74
2024/03/22 09:02:54;;;;;;;37.50;10.38;;;;;;;;;;4991418;28;20586;-73
2024/03/22 09:05:19;;;;;;;0.63;0.63;;;;;;;;;;4993588;28;20077;-76
2024/03/22 09:07:45;;;;;;;2.45;2.30;;;;;;;;;;4994659;28;20046;-73
2024/03/22 09:10:12;;;;;;;0.30;0.30;;;;;;;;;;4993785;28;20034;-73
2024/03/22 09:12:37;;;;;;;0.30;0.30;;;;;;;;;;4993296;28;20042;-74
2024/03/22 09:15:04;;;;;;;1.02;1.02;;;;;;;;;;4992945;28;20505;-72
2024/03/22 09:17:29;;;;;;;5.80;3.13;;;;;;;;;;4990966;28;20062;-71
2024/03/22 09:19:55;;;;;;;2.08;1.88;;;;;;;;;;4993445;28;20034;-73
2024/03/22 09:22:20;;;;;;;0.65;0.65;;;;;;;;;;4995091;28;20132;-74
2024/03/22 09:24:45;;;;;;;0.30;0.30;;;;;;;;;;4992912;28;20045;-74
2024/03/22 09:27:11;;;;;;;2.45;2.35;;;;;;;;;;4991597;28;20049;-71
2024/03/22 09:29:36;;;;;;;11.30;10.82;;;;;;;;;;4993731;28;20037;-71
2024/03/22 09:32:02;;;;;;;1.02;1.00;;;;;;;;;;4992900;28;20525;-75
2024/03/22 09:34:29;;;;;;;4.05;2.60;;;;;;;;;;4992539;28;20398;-73
2024/03/22 09:36:55;;;;;;;4.45;4.03;;;;;;;;;;4992692;28;20047;-72
2024/03/22 09:39:20;;;;;;;0.77;0.77;;;;;;;;;;4993493;28;20734;-72
2024/03/22 09:41:46;;;;;;;0.20;0.20;;;;;;;;;;4992021;28;20073;-74
2024/03/22 09:44:12;;;;;;;0.52;0.52;;;;;;;;;;4992873;28;20033;-72
2024/03/22 09:46:38;;;;;;;3.05;2.75;;;;;;;;;;4991966;28;20062;-74
2024/03/22 09:49:04;;;;;;;0.30;0.30;;;;;;;;;;4993207;28;20053;-74
2024/03/22 09:51:30;;;;;;;0.40;0.40;;;;;;;;;;4990125;28;20101;-74
2024/03/22 09:53:56;;;;;;;0.93;0.93;;;;;;;;;;4993840;28;20088;-74
2024/03/22 09:56:21;;;;;;;1.85;1.45;;;;;;;;;;5007776;28;20057;-74
2024/03/22 09:58:48;;;;;;;1.92;1.48;;;;;;;;;;4993350;28;20057;-72
2024/03/22 10:01:15;;;;;;;0.50;0.50;;;;;;;;;;4991828;28;20103;-73
2024/03/22 10:03:40;;;;;;;0.77;0.77;;;;;;;;;;5007561;28;20445;-74
2024/03/22 10:06:06;;;;;;;2.58;2.10;;;;;;;;;;4993615;28;20049;-72
2024/03/22 10:08:32;;;;;;;1.65;1.55;;;;;;;;;;4992879;28;20525;-74
2024/03/22 10:10:57;;;;;;;2.53;2.28;;;;;;;;;;4989410;28;20066;-74
2024/03/22 10:13:23;;;;;;;4.72;4.32;;;;;;;;;;4993277;28;20030;-76
2024/03/22 10:15:48;;;;;;;4.53;4.13;;;;;;;;;;4991581;28;20111;-75
2024/03/22 10:18:14;;;;;;;2.45;1.48;;;;;;;;;;4992928;28;20670;-73
2024/03/22 10:20:40;;;;;;;0.50;0.50;;;;;;;;;;4991073;28;20042;-74
2024/03/22 10:23:07;;;;;;;1.95;1.77;;;;;;;;;;4993112;28;20038;-74
2024/03/22 10:25:33;;;;;;;3.28;2.97;;;;;;;;;;4993401;28;20168;-73
2024/03/22 10:27:59;;;;;;;4.65;3.03;;;;;;;;;;4993124;28;21523;-74
2024/03/22 10:30:24;;;;;;;2.28;2.05;;;;;;;;;;4990632;28;20064;-72
2024/03/22 10:32:50;;;;;;;2.92;2.58;;;;;;;;;;4993553;28;20042;-74
2024/03/22 10:35:16;;;;;;;8.50;4.63;;;;;;;;;;4994537;28;20964;-72
2024/03/22 10:37:42;;;;;;;3.88;2.22;;;;;;;;;;4997972;28;20033;-74
2024/03/22 10:40:08;;;;;;;2.10;1.98;;;;;;;;;;4994973;28;20079;-73
2024/03/22 10:42:36;;;;;;;3.83;3.50;;;;;;;;;;4995123;28;20148;-73
2024/03/22 10:45:02;;;;;;;4.13;3.83;;;;;;;;;;4997624;28;20125;-72
2024/03/22 10:47:29;;;;;;;1.98;1.85;;;;;;;;;;4995957;28;21290;-73
2024/03/22 10:49:58;;;;;;;2.80;2.60;;;;;;;;;;4990395;28;21415;-73
2024/03/22 10:52:24;;;;;;;3.17;2.88;;;;;;;;;;4997068;28;20091;-73
2024/03/22 10:54:50;;;;;;;7.93;4.35;;;;;;;;;;4996524;28;20168;-74
2024/03/22 10:57:16;;;;;;;5.85;3.70;;;;;;;;;;4995335;28;20473;-73
2024/03/22 10:59:42;;;;;;;12.63;2.72;;;;;;;;;;5001010;28;20555;-72
2024/03/22 11:02:10;;;;;;;4.57;3.08;;;;;;;;;;4995341;28;20046;-74
2024/03/22 11:04:35;;;;;;;1.83;1.70;;;;;;;;;;4996336;28;20498;-74
2024/03/22 11:07:02;;;;;;;5.82;4.55;;;;;;;;;;4995465;28;20041;-74
2024/03/22 11:09:27;;;;;;;3.65;2.65;;;;;;;;;;4995895;28;20738;-73
2024/03/22 11:11:53;;;;;;;2.45;2.20;;;;;;;;;;4995501;28;20054;-73
2024/03/22 11:14:20;;;;;;;3.75;1.10;;;;;;;;;;4993370;28;20042;-71
2024/03/22 11:16:45;;;;;;;3.05;1.33;;;;;;;;;;4995042;28;21471;-75
2024/03/22 11:19:11;;;;;;;9.05;3.08;;;;;;;;;;4995323;28;20022;-74
2024/03/22 11:21:37;;;;;;;3.97;1.73;;;;;;;;;;4993377;28;20673;-74
2024/03/22 11:24:03;;;;;;;1.30;1.20;;;;;;;;;;4997196;28;20052;-73
2024/03/22 11:26:28;;;;;;;2.50;1.13;;;;;;;;;;4993969;28;20045;-75
2024/03/22 11:28:53;;;;;;;1.60;1.50;;;;;;;;;;4996126;28;20049;-73
2024/03/22 11:31:25;;;;;;;3.35;2.25;;;;;;;;;;4992678;28;20064;-74
2024/03/22 11:33:51;;;;;;;3.75;2.38;;;;;;;;;;4995833;28;20588;-74
2024/03/22 11:36:17;;;;;;;4.10;1.95;;;;;;;;;;4996122;28;20144;-75
2024/03/22 11:38:43;;;;;;;1.48;1.33;;;;;;;;;;4995026;28;20042;-74
2024/03/22 11:41:09;;;;;;;3.10;2.08;;;;;;;;;;4994130;28;20050;-75
2024/03/22 11:43:34;;;;;;;3.17;2.05;;;;;;;;;;4996005;28;20521;-75
2024/03/22 11:46:01;;;;;;;3.70;2.05;;;;;;;;;;4995256;28;20149;-73
2024/03/22 11:48:27;;;;;;;3.42;3.13;;;;;;;;;;4994919;28;20127;-75
2024/03/22 11:50:52;;;;;;;1.90;1.48;;;;;;;;;;4993009;28;20508;-73
2024/03/22 11:53:17;;;;;;;1.45;1.15;;;;;;;;;;4997084;28;20034;-74
2024/03/22 11:55:43;;;;;;;5.38;2.70;;;;;;;;;;4994530;28;20561;-76
2024/03/22 11:58:09;;;;;;;2.47;1.95;;;;;;;;;;4996239;28;20073;-74
2024/03/22 12:00:35;;;;;;;1.92;1.83;;;;;;;;;;4992980;28;20053;-73
2024/03/22 12:03:00;;;;;;;4.55;3.85;;;;;;;;;;4995654;28;20041;-74
2024/03/22 12:05:26;;;;;;;5.13;3.45;;;;;;;;;;4995189;28;20092;-75
2024/03/22 12:07:52;;;;;;;3.90;1.38;;;;;;;;;;5001706;28;20062;-73
2024/03/22 12:10:17;;;;;;;1.27;1.17;;;;;;;;;;5010113;28;20478;-74
2024/03/22 12:12:43;;;;;;;2.70;2.47;;;;;;;;;;4993151;28;20114;-73
2024/03/22 12:15:08;;;;;;;1.17;1.08;;;;;;;;;;4982574;28;20129;-73
2024/03/22 12:17:36;;;;;;;2.08;1.65;;;;;;;;;;5004347;28;20503;-74
2024/03/22 12:20:01;;;;;;;2.85;2.22;;;;;;;;;;5006923;28;20038;-73
2024/03/22 12:22:28;;;;;;;2.80;1.67;;;;;;;;;;5006822;28;20025;-73
2024/03/22 12:24:53;;;;;;;2.35;2.15;;;;;;;;;;5008115;28;20018;-73
2024/03/22 12:27:18;;;;;;;1.33;1.23;;;;;;;;;;5005121;28;20061;-73
2024/03/22 12:29:44;;;;;;;1.30;1.20;;;;;;;;;;5009340;28;20033;-73
2024/03/22 12:32:10;;;;;;;1.45;1.08;;;;;;;;;;5007385;28;20512;-73
2024/03/22 12:34:35;;;;;;;1.73;1.45;;;;;;;;;;5006409;28;20032;-73
2024/03/22 12:37:01;;;;;;;1.73;1.63;;;;;;;;;;5007966;28;20032;-73
2024/03/22 12:39:26;;;;;;;1.42;0.82;;;;;;;;;;5005315;28;20026;-73
2024/03/22 12:41:52;;;;;;;2.97;2.15;;;;;;;;;;5014076;28;20145;-73
2024/03/22 12:44:18;;;;;;;3.58;2.00;;;;;;;;;;5007958;28;20390;-72
2024/03/22 12:46:44;;;;;;;1.67;1.58;;;;;;;;;;5006935;28;20018;-73
2024/03/22 12:49:10;;;;;;;15.85;2.33;;;;;;;;;;4986159;28;20022;-73
2024/03/22 12:51:36;;;;;;;1.52;0.98;;;;;;;;;;5002788;28;20560;-73
2024/03/22 12:54:02;;;;;;;2.75;1.83;;;;;;;;;;5006345;28;20046;-72
2024/03/22 12:56:28;;;;;;;1.85;1.67;;;;;;;;;;5005384;28;20576;-73
2024/03/22 12:58:54;;;;;;;1.63;1.52;;;;;;;;;;5006605;28;20053;-73
2024/03/22 13:01:19;;;;;;;3.78;2.13;;;;;;;;;;5005957;28;20037;-74
2024/03/22 13:03:45;;;;;;;3.63;1.90;;;;;;;;;;5006568;28;20038;-73
2024/03/22 13:06:10;;;;;;;0.82;0.80;;;;;;;;;;5006431;28;20065;-75
2024/03/22 13:08:35;;;;;;;7.05;3.22;;;;;;;;;;5006201;28;20038;-74
2024/03/22 13:11:01;;;;;;;1.73;1.33;;;;;;;;;;5005884;28;20461;-74
2024/03/22 13:13:26;;;;;;;2.97;2.78;;;;;;;;;;5029462;28;20048;-74
2024/03/22 13:15:52;;;;;;;1.15;0.98;;;;;;;;;;5005641;28;20561;-73
2024/03/22 13:18:17;;;;;;;1.70;1.40;;;;;;;;;;5006557;28;20092;-72
2024/03/22 13:20:43;;;;;;;0.98;0.88;;;;;;;;;;5006460;28;20048;-74
2024/03/22 13:23:08;;;;;;;0.95;0.93;;;;;;;;;;5006571;28;20121;-73
2024/03/22 13:25:37;;;;;;;2.75;2.55;;;;;;;;;;5006083;28;20022;-75
2024/03/22 13:28:05;;;;;;;1.25;1.00;;;;;;;;;;5006352;28;20394;-74
2024/03/22 13:30:31;;;;;;;3.30;3.00;;;;;;;;;;5003896;28;20050;-74
2024/03/22 13:32:56;;;;;;;1.33;1.00;;;;;;;;;;5005846;28;20088;-73
2024/03/22 13:35:22;;;;;;;2.80;2.53;;;;;;;;;;5006290;28;20046;-74
2024/03/22 13:37:47;;;;;;;2.45;2.10;;;;;;;;;;5004920;28;20890;-74
2024/03/22 13:40:12;;;;;;;2.53;2.33;;;;;;;;;;5005177;28;20056;-72
2024/03/22 13:42:38;;;;;;;1.88;1.77;;;;;;;;;;5006030;28;20045;-74
2024/03/22 13:45:03;;;;;;;5.32;3.28;;;;;;;;;;5012314;28;20065;-75
2024/03/22 13:47:29;;;;;;;3.13;2.60;;;;;;;;;;5007035;28;20541;-74
2024/03/22 13:49:54;;;;;;;4.30;2.67;;;;;;;;;;5006752;28;20064;-74
2024/03/22 13:52:20;;;;;;;1.92;1.77;;;;;;;;;;5003489;28;20026;-72
2024/03/22 13:54:46;;;;;;;2.92;2.15;;;;;;;;;;5005447;28;20493;-71
2024/03/22 13:57:11;;;;;;;2.10;1.83;;;;;;;;;;5004088;28;20467;-71
2024/03/22 13:59:37;;;;;;;3.88;2.42;;;;;;;;;;5003718;28;20037;-73
2024/03/22 14:02:03;;;;;;;3.90;2.28;;;;;;;;;;5004812;28;20050;-71
2024/03/22 14:04:29;;;;;;;1.83;1.55;;;;;;;;;;5005017;28;20014;-72
2024/03/22 14:07:04;;;;;;;2.55;2.35;;;;;;;;;;5003409;28;20135;-72
2024/03/22 14:09:30;;;;;;;1.20;0.90;;;;;;;;;;5004010;28;20132;-72
2024/03/22 14:11:56;;;;;;;1.40;1.25;;;;;;;;;;5005342;28;20505;-71
2024/03/22 14:14:21;;;;;;;0.63;0.63;;;;;;;;;;5003093;28;20080;-72
2024/03/22 14:16:46;;;;;;;6.35;2.90;;;;;;;;;;5002008;28;20501;-73
2024/03/22 14:19:12;;;;;;;3.50;2.28;;;;;;;;;;5005302;28;20079;-70
2024/03/22 14:21:38;;;;;;;11.98;3.40;;;;;;;;;;5003948;28;20030;-72
2024/03/22 14:24:04;;;;;;;1.05;0.82;;;;;;;;;;5004401;28;20045;-71
2024/03/22 14:26:29;;;;;;;1.17;0.90;;;;;;;;;;4997833;28;20046;-72
2024/03/22 14:28:55;;;;;;;2.00;1.63;;;;;;;;;;5003621;28;20480;-74
2024/03/22 14:31:20;;;;;;;1.75;1.65;;;;;;;;;;5002006;28;20064;-73
2024/03/22 14:33:46;;;;;;;1.90;1.80;;;;;;;;;;5005817;28;20069;-73